Time;durP1;ratioP1;P1;durP2;ratioP2;P2;SDS_P1;SDS_P2;PMS_P1;PMS_P2;Temp;Humidity;BMP_temperature;BMP_pressure;BME280_temperature;BME280_humidity;BME280_pressure;Samples;Min_cycle;Max_cycle;Signal;HPM_P1;HPM_P2
2023/11/08 00:01:56;;;;;;;2.93;1.03;;;10.70;99.90;;;;;;4993062;28;20294;-91
2023/11/08 00:04:22;;;;;;;0.67;0.40;;;10.60;99.90;;;;;;4975435;28;20218;-91
2023/11/08 00:06:48;;;;;;;0.10;0.10;;;10.60;99.90;;;;;;4977335;28;20198;-92
2023/11/08 00:09:14;;;;;;;0.10;0.10;;;10.50;99.90;;;;;;4993495;28;20198;-91
2023/11/08 00:11:40;;;;;;;2.63;0.67;;;10.60;99.90;;;;;;5008382;28;20211;-91
2023/11/08 00:14:10;;;;;;;0.17;0.17;;;10.60;99.90;;;;;;4992424;28;20679;-91
2023/11/08 00:16:36;;;;;;;0.30;0.30;;;10.60;99.90;;;;;;5016593;28;20221;-92
2023/11/08 00:19:03;;;;;;;0.30;0.30;;;10.60;99.90;;;;;;4977026;28;20245;-91
2023/11/08 00:21:33;;;;;;;0.20;0.20;;;10.50;99.90;;;;;;4993142;28;20583;-91
2023/11/08 00:24:00;;;;;;;1.17;1.07;;;10.50;99.90;;;;;;5008447;28;20215;-91
2023/11/08 00:26:27;;;;;;;0.40;0.40;;;10.40;99.90;;;;;;4992435;28;20730;-91
2023/11/08 00:28:52;;;;;;;0.30;0.30;;;10.40;99.90;;;;;;4984091;28;20211;-91
2023/11/08 00:31:20;;;;;;;0.37;0.37;;;10.30;99.90;;;;;;5020336;28;20310;-90
2023/11/08 00:33:46;;;;;;;0.20;0.20;;;10.30;99.90;;;;;;5011031;28;20202;-92
2023/11/08 00:36:13;;;;;;;0.13;0.13;;;10.30;99.90;;;;;;5028270;28;20179;-91
2023/11/08 00:38:39;;;;;;;0.60;0.60;;;10.40;99.90;;;;;;5026400;28;20214;-91
2023/11/08 00:41:05;;;;;;;0.20;0.20;;;10.40;99.90;;;;;;4994331;28;20603;-92
2023/11/08 00:43:31;;;;;;;0.57;0.50;;;10.50;99.90;;;;;;5027105;28;20686;-92
2023/11/08 00:46:02;;;;;;;5.10;0.47;;;10.50;99.90;;;;;;4994413;28;20271;-92
2023/11/08 00:48:28;;;;;;;0.23;0.23;;;10.60;99.90;;;;;;5027554;28;20285;-92
2023/11/08 00:50:54;;;;;;;0.20;0.20;;;10.60;99.90;;;;;;5010745;28;20218;-92
2023/11/08 00:53:21;;;;;;;2.10;0.80;;;10.60;99.90;;;;;;5010846;28;20254;-92
2023/11/08 00:55:46;;;;;;;0.20;0.20;;;10.60;99.90;;;;;;5003634;28;20226;-91
2023/11/08 00:58:12;;;;;;;0.40;0.40;;;10.70;99.90;;;;;;4994679;28;20218;-93
2023/11/08 01:00:38;;;;;;;0.53;0.33;;;10.70;99.90;;;;;;5010730;28;20226;-92
2023/11/08 01:03:04;;;;;;;0.50;0.50;;;10.70;99.90;;;;;;4994511;28;20539;-91
2023/11/08 01:05:32;;;;;;;0.30;0.30;;;10.70;99.90;;;;;;5009888;28;20203;-91
2023/11/08 01:07:57;;;;;;;4.10;0.50;;;10.70;99.90;;;;;;4994361;28;20222;-91
2023/11/08 01:10:23;;;;;;;4.33;0.53;;;10.70;99.90;;;;;;4993223;28;20219;-91
2023/11/08 01:12:53;;;;;;;0.37;0.37;;;10.70;99.90;;;;;;5026102;28;20186;-91
2023/11/08 01:15:22;;;;;;;1.03;0.93;;;10.60;99.90;;;;;;5011738;28;20198;-92
2023/11/08 01:17:48;;;;;;;0.30;0.30;;;10.60;99.90;;;;;;4993573;28;20229;-92
2023/11/08 01:20:14;;;;;;;6.30;0.60;;;10.60;99.90;;;;;;5010798;28;20582;-92
2023/11/08 01:22:40;;;;;;;0.83;0.40;;;10.60;99.90;;;;;;5009345;28;20428;-91
2023/11/08 01:25:07;;;;;;;1.13;0.40;;;10.60;99.90;;;;;;4994150;28;20233;-91
2023/11/08 01:27:32;;;;;;;0.83;0.83;;;10.60;99.90;;;;;;4994167;28;21121;-92
2023/11/08 01:29:59;;;;;;;0.40;0.40;;;10.60;99.90;;;;;;4992270;28;20237;-91
2023/11/08 01:32:25;;;;;;;5.23;0.87;;;10.50;99.90;;;;;;4991661;28;21039;-91
2023/11/08 01:34:50;;;;;;;5.23;0.47;;;10.60;99.90;;;;;;4992161;28;20215;-92
2023/11/08 01:37:16;;;;;;;0.27;0.27;;;10.50;99.90;;;;;;4991557;28;20226;-91
2023/11/08 01:39:42;;;;;;;0.27;0.27;;;10.40;99.90;;;;;;4988675;28;20886;-91
2023/11/08 01:42:09;;;;;;;0.20;0.20;;;10.40;99.90;;;;;;4990867;28;20730;-91
2023/11/08 01:44:35;;;;;;;0.30;0.30;;;10.40;99.90;;;;;;4975189;28;20276;-91
2023/11/08 01:47:02;;;;;;;0.23;0.23;;;10.50;99.90;;;;;;4991467;28;20215;-91
2023/11/08 01:49:28;;;;;;;3.93;0.80;;;10.50;99.90;;;;;;4990772;28;20214;-91
2023/11/08 01:51:55;;;;;;;0.50;0.50;;;10.50;99.90;;;;;;4989518;28;20317;-91
2023/11/08 01:54:26;;;;;;;0.37;0.30;;;10.50;99.90;;;;;;5006992;28;20754;-91
2023/11/08 01:56:51;;;;;;;0.63;0.57;;;10.50;99.90;;;;;;4984443;28;20237;-91
2023/11/08 01:59:18;;;;;;;0.10;0.10;;;10.60;99.90;;;;;;5006152;28;20227;-92
2023/11/08 02:01:45;;;;;;;3.50;0.83;;;10.60;99.90;;;;;;4989678;28;20222;-92
2023/11/08 02:04:12;;;;;;;0.20;0.20;;;10.50;99.90;;;;;;5005296;28;20284;-92
2023/11/08 02:06:38;;;;;;;0.30;0.30;;;10.40;99.90;;;;;;5007496;28;20205;-91
2023/11/08 02:09:05;;;;;;;0.10;0.10;;;10.40;99.90;;;;;;4975165;28;20270;-91
2023/11/08 02:11:33;;;;;;;0.33;0.33;;;10.40;99.90;;;;;;5007405;28;20214;-91
2023/11/08 02:13:58;;;;;;;1.87;0.73;;;10.40;99.90;;;;;;5006058;28;20197;-91
2023/11/08 02:16:24;;;;;;;0.20;0.20;;;10.40;99.90;;;;;;4991056;28;20265;-92
2023/11/08 02:18:50;;;;;;;0.23;0.23;;;10.40;99.90;;;;;;5006604;28;20182;-91
2023/11/08 02:21:17;;;;;;;2.53;0.53;;;10.40;99.90;;;;;;4977120;28;20203;-92
2023/11/08 06:27:16;;;;;;;0.47;0.47;;;8.50;99.90;;;;;;5053958;27;20972;-96
2023/11/08 06:29:42;;;;;;;0.60;0.60;;;8.60;99.90;;;;;;4996079;28;20214;-96
2023/11/08 06:32:08;;;;;;;0.60;0.60;;;8.70;99.90;;;;;;5023584;28;20230;-93
2023/11/08 06:34:34;;;;;;;2.97;0.70;;;8.80;99.90;;;;;;5003720;28;20235;-95
2023/11/08 06:37:00;;;;;;;5.83;0.50;;;8.90;99.90;;;;;;4995859;28;20222;-94
2023/11/08 06:39:25;;;;;;;10.70;1.00;;;9.00;99.90;;;;;;4994067;28;20662;-94
2023/11/08 06:41:51;;;;;;;0.50;0.50;;;9.00;99.90;;;;;;5006833;28;20217;-93
2023/11/08 06:44:18;;;;;;;1.17;0.93;;;9.10;99.90;;;;;;4985184;28;20215;-94
2023/11/08 06:46:43;;;;;;;10.50;0.57;;;9.00;99.90;;;;;;4992304;28;20234;-92
2023/11/08 06:49:10;;;;;;;2.67;0.70;;;9.10;99.90;;;;;;5028507;28;20287;-92
2023/11/08 06:51:35;;;;;;;0.60;0.50;;;9.10;99.90;;;;;;5007727;28;20218;-95
2023/11/08 06:54:01;;;;;;;0.30;0.30;;;9.10;99.90;;;;;;5007630;28;20191;-94
2023/11/08 06:56:27;;;;;;;0.57;0.57;;;9.10;99.90;;;;;;5008447;28;20191;-95
2023/11/08 06:58:53;;;;;;;2.83;1.60;;;9.20;99.90;;;;;;5010263;28;20277;-94
2023/11/08 07:01:19;;;;;;;1.00;0.80;;;9.20;99.90;;;;;;5008301;28;20208;-95
2023/11/08 07:03:45;;;;;;;0.60;0.60;;;9.20;99.90;;;;;;5009242;28;20229;-93
2023/11/08 07:06:12;;;;;;;0.43;0.43;;;9.20;99.90;;;;;;4990294;28;20208;-96
2023/11/08 07:08:38;;;;;;;2.47;0.57;;;9.20;99.90;;;;;;5000841;28;20186;-96
2023/11/08 07:11:04;;;;;;;1.20;1.10;;;9.20;99.90;;;;;;5014875;28;20228;-96
2023/11/08 07:13:30;;;;;;;3.03;0.63;;;9.20;99.90;;;;;;5012342;28;20229;-96
2023/11/08 07:15:56;;;;;;;0.27;0.27;;;9.20;99.90;;;;;;5011155;28;20218;-96
2023/11/08 07:18:22;;;;;;;1.13;1.03;;;9.20;99.90;;;;;;5011559;28;21371;-93
2023/11/08 07:20:48;;;;;;;1.70;1.60;;;9.30;99.90;;;;;;5028810;28;20187;-93
2023/11/08 07:23:14;;;;;;;4.23;1.17;;;9.30;99.90;;;;;;4994056;28;20228;-94
2023/11/08 07:25:40;;;;;;;0.53;0.53;;;9.30;99.90;;;;;;4980541;28;20675;-94
2023/11/08 07:28:07;;;;;;;0.63;0.63;;;9.40;99.90;;;;;;4998638;28;21014;-94
2023/11/08 07:30:32;;;;;;;1.10;1.10;;;9.40;99.90;;;;;;5009304;28;20225;-93
2023/11/08 07:33:00;;;;;;;0.77;0.77;;;9.40;99.90;;;;;;5023992;28;20183;-93
2023/11/08 07:35:26;;;;;;;0.40;0.40;;;9.40;99.90;;;;;;5014492;28;20760;-92
2023/11/08 07:37:51;;;;;;;1.60;1.50;;;9.50;99.90;;;;;;4998151;28;20227;-91
2023/11/08 07:40:17;;;;;;;0.93;0.93;;;9.70;99.90;;;;;;4996998;28;20231;-95
2023/11/08 07:42:43;;;;;;;0.40;0.40;;;9.90;99.90;;;;;;4977208;28;20223;-95
2023/11/08 07:45:10;;;;;;;0.63;0.63;;;10.00;99.90;;;;;;4975910;28;20223;-93
2023/11/08 07:47:36;;;;;;;0.57;0.57;;;10.10;99.90;;;;;;4997748;28;20187;-93
2023/11/08 07:50:06;;;;;;;0.40;0.40;;;10.10;99.90;;;;;;4995224;28;20223;-92
2023/11/08 07:52:32;;;;;;;2.00;0.83;;;10.50;99.90;;;;;;4976247;28;20216;-93
2023/11/08 07:54:58;;;;;;;0.87;0.70;;;11.00;99.90;;;;;;4986613;28;20701;-92
2023/11/08 07:57:24;;;;;;;0.57;0.57;;;10.80;99.90;;;;;;4994556;28;20323;-91
2023/11/08 07:59:50;;;;;;;0.97;0.67;;;10.90;99.90;;;;;;4995112;28;20184;-91
2023/11/08 08:02:16;;;;;;;0.50;0.43;;;11.10;99.90;;;;;;4978493;28;20219;-93
2023/11/08 08:04:42;;;;;;;1.30;1.17;;;11.10;99.90;;;;;;4963302;28;20738;-92
2023/11/08 08:07:09;;;;;;;0.40;0.40;;;11.00;99.90;;;;;;4994103;28;20299;-91
2023/11/08 08:09:35;;;;;;;0.57;0.53;;;11.10;99.90;;;;;;4995134;28;20219;-91
2023/11/08 08:12:01;;;;;;;0.53;0.50;;;11.00;99.90;;;;;;4978739;28;20199;-91
2023/11/08 08:14:26;;;;;;;1.67;1.57;;;10.90;99.90;;;;;;4995967;28;20199;-94
2023/11/08 08:16:52;;;;;;;1.70;1.13;;;10.80;99.90;;;;;;4994905;28;20843;-94
2023/11/08 08:19:23;;;;;;;0.93;0.93;;;10.70;99.90;;;;;;4997596;28;20215;-96
2023/11/08 08:21:51;;;;;;;0.50;0.50;;;10.60;99.90;;;;;;4991435;23;20240;-95
2023/11/08 08:24:19;;;;;;;0.97;0.97;;;10.60;99.90;;;;;;4995889;28;20230;-92
2023/11/08 08:26:45;;;;;;;1.60;1.50;;;10.60;99.90;;;;;;4996838;28;20305;-93
2023/11/08 08:29:13;;;;;;;1.90;1.43;;;10.70;99.90;;;;;;4995280;28;20297;-93
2023/11/08 08:31:39;;;;;;;1.50;0.60;;;10.70;99.90;;;;;;4995656;28;20616;-93
2023/11/08 08:34:07;;;;;;;1.50;1.33;;;10.80;99.90;;;;;;4995168;28;20216;-93
2023/11/08 08:36:33;;;;;;;2.90;2.27;;;10.80;99.90;;;;;;4996059;28;20265;-94
2023/11/08 08:38:59;;;;;;;1.93;1.77;;;10.80;99.90;;;;;;4994882;28;20693;-94
2023/11/08 08:41:25;;;;;;;9.20;2.57;;;10.90;99.90;;;;;;4979300;28;20184;-92
2023/11/08 08:43:50;;;;;;;5.47;3.17;;;11.00;99.90;;;;;;4995256;28;20214;-93
2023/11/08 08:46:16;;;;;;;6.57;3.10;;;11.00;99.90;;;;;;4995281;28;20249;-92
2023/11/08 08:48:42;;;;;;;4.20;2.13;;;11.10;99.90;;;;;;4977857;28;20310;-94
2023/11/08 08:51:08;;;;;;;3.23;2.83;;;11.00;99.90;;;;;;4995541;28;20210;-92
2023/11/08 08:53:34;;;;;;;3.90;2.20;;;11.00;99.90;;;;;;5012107;28;20179;-93
2023/11/08 08:56:00;;;;;;;3.07;2.77;;;11.00;99.90;;;;;;4978905;28;20477;-93
2023/11/08 08:58:26;;;;;;;2.47;1.97;;;11.00;99.90;;;;;;4995600;28;20207;-92
2023/11/08 09:00:53;;;;;;;2.23;2.03;;;11.10;99.90;;;;;;4971127;28;20226;-93
2023/11/08 09:03:19;;;;;;;2.93;2.70;;;11.20;99.90;;;;;;4979046;28;20213;-93
2023/11/08 09:05:45;;;;;;;4.23;2.30;;;11.30;99.90;;;;;;5027635;28;20199;-93
2023/11/08 09:08:11;;;;;;;2.30;2.20;;;11.40;99.90;;;;;;4994514;28;20292;-93
2023/11/08 09:10:37;;;;;;;0.43;0.43;;;11.50;99.90;;;;;;5011687;28;20210;-93
2023/11/08 09:13:03;;;;;;;2.10;1.90;;;11.40;99.90;;;;;;5011234;28;20245;-93
2023/11/08 09:15:30;;;;;;;2.83;2.33;;;11.30;99.90;;;;;;4995759;28;20210;-92
2023/11/08 09:17:56;;;;;;;1.07;0.97;;;11.40;99.90;;;;;;5011434;28;20187;-92
2023/11/08 09:20:22;;;;;;;2.60;1.27;;;11.40;99.90;;;;;;5011130;28;20229;-93
2023/11/08 09:22:49;;;;;;;1.73;1.60;;;11.40;99.90;;;;;;4993865;28;20218;-93
2023/11/08 09:25:14;;;;;;;2.83;1.67;;;11.50;99.90;;;;;;5011279;28;20241;-93
2023/11/08 09:27:41;;;;;;;2.90;1.03;;;11.60;99.90;;;;;;5011404;28;20207;-92
2023/11/08 09:30:08;;;;;;;14.13;2.33;;;11.50;99.90;;;;;;5026984;28;20639;-93
2023/11/08 09:32:35;;;;;;;3.40;1.77;;;11.60;99.90;;;;;;5044365;28;20540;-93
2023/11/08 09:35:01;;;;;;;3.23;1.13;;;11.70;99.90;;;;;;5035856;28;20781;-93
2023/11/08 09:37:27;;;;;;;12.13;2.10;;;11.70;99.90;;;;;;5010499;28;20293;-93
2023/11/08 09:39:55;;;;;;;2.93;2.00;;;11.70;99.90;;;;;;5027297;28;20325;-95
2023/11/08 09:42:22;;;;;;;2.93;2.10;;;11.70;99.90;;;;;;5010696;28;20667;-96
2023/11/08 09:44:48;;;;;;;1.50;1.40;;;11.60;99.90;;;;;;5022162;28;20183;-92
2023/11/08 09:47:17;;;;;;;2.60;1.80;;;11.60;99.90;;;;;;5013952;28;20218;-92
2023/11/08 09:49:56;;;;;;;0.57;0.57;;;11.70;99.90;;;;;;5028832;28;20211;-91
2023/11/08 09:52:22;;;;;;;1.17;1.10;;;11.50;99.90;;;;;;5019668;28;20289;-91
2023/11/08 09:54:47;;;;;;;1.77;1.10;;;11.50;99.90;;;;;;5011680;28;20272;-92
2023/11/08 09:57:15;;;;;;;2.37;1.17;;;11.50;99.90;;;;;;5008461;28;20183;-92
2023/11/08 09:59:43;;;;;;;0.50;0.50;;;11.40;99.90;;;;;;5025585;28;20181;-91
2023/11/08 10:02:13;;;;;;;0.93;0.50;;;11.40;99.90;;;;;;5026285;28;22660;-90
2023/11/08 10:04:41;;;;;;;0.90;0.90;;;11.50;99.90;;;;;;5024624;28;20207;-91
2023/11/08 10:07:07;;;;;;;0.47;0.47;;;11.60;99.90;;;;;;5010765;28;20227;-91
2023/11/08 10:09:36;;;;;;;0.60;0.60;;;11.60;99.90;;;;;;5028634;28;20214;-89
2023/11/08 10:12:08;;;;;;;0.77;0.77;;;11.70;99.90;;;;;;5010011;28;20716;-91
2023/11/08 10:14:35;;;;;;;1.63;1.57;;;11.90;99.90;;;;;;5027454;28;20176;-93
2023/11/08 10:17:03;;;;;;;2.53;0.87;;;12.10;99.90;;;;;;5009440;28;20222;-91
2023/11/08 10:19:46;;;;;;;1.40;1.30;;;12.00;99.90;;;;;;5025859;28;20210;-89
2023/11/08 10:22:22;;;;;;;0.57;0.57;;;11.90;99.90;;;;;;5017045;28;20729;-93
2023/11/08 10:24:54;;;;;;;0.80;0.80;;;11.90;99.90;;;;;;5027172;28;20649;-90
2023/11/08 10:27:20;;;;;;;0.33;0.33;;;11.80;99.90;;;;;;5009909;28;20222;-91
2023/11/08 10:29:46;;;;;;;0.43;0.43;;;11.80;99.90;;;;;;5010784;28;20183;-90
2023/11/08 10:32:23;;;;;;;1.33;1.30;;;11.80;99.90;;;;;;4995290;28;20566;-89
2023/11/08 10:34:51;;;;;;;3.80;0.67;;;11.80;99.90;;;;;;5004069;28;20229;-91
2023/11/08 10:37:24;;;;;;;0.57;0.50;;;12.00;99.90;;;;;;5011257;28;20562;-90
2023/11/08 10:39:57;;;;;;;0.90;0.90;;;12.00;99.90;;;;;;5009516;28;20218;-90
2023/11/08 10:42:26;;;;;;;0.90;0.80;;;12.10;99.90;;;;;;5045271;28;20210;-94
2023/11/08 10:45:06;;;;;;;0.43;0.43;;;12.10;99.90;;;;;;5029109;28;20708;-93
2023/11/08 10:47:32;;;;;;;0.50;0.50;;;12.20;99.90;;;;;;5032270;28;20225;-94
2023/11/08 10:49:59;;;;;;;0.57;0.57;;;12.20;99.90;;;;;;5012308;28;21072;-93
2023/11/08 10:52:27;;;;;;;1.23;0.60;;;12.30;99.90;;;;;;5031187;28;20717;-93
2023/11/08 10:54:53;;;;;;;1.50;0.60;;;12.20;99.90;;;;;;5032729;28;20218;-94
2023/11/08 10:57:21;;;;;;;0.50;0.50;;;12.10;99.90;;;;;;5029999;28;20222;-93
2023/11/08 10:59:50;;;;;;;0.30;0.30;;;12.00;99.90;;;;;;5031347;28;20191;-93
2023/11/08 11:02:42;;;;;;;0.50;0.50;;;11.90;99.90;;;;;;5031798;28;20241;-94
2023/11/08 11:05:10;;;;;;;3.23;0.83;;;11.90;99.90;;;;;;5014136;28;20559;-93
2023/11/08 11:07:40;;;;;;;1.27;1.10;;;11.80;99.90;;;;;;5038281;28;20213;-94
2023/11/08 11:10:11;;;;;;;1.20;1.13;;;11.70;99.90;;;;;;5019005;28;20346;-95
2023/11/08 11:13:09;;;;;;;5.17;1.27;;;11.70;99.90;;;;;;5015283;28;20222;-93
2023/11/08 11:16:09;;;;;;;11.23;0.80;;;11.70;99.90;;;;;;5037125;28;20629;-94
2023/11/08 11:18:45;;;;;;;1.00;0.70;;;11.70;99.90;;;;;;5034817;28;20289;-95
2023/11/08 11:21:24;;;;;;;1.23;1.00;;;11.70;99.90;;;;;;5015943;28;20186;-94
2023/11/08 11:23:51;;;;;;;9.73;1.87;;;11.60;99.90;;;;;;5051396;28;20256;-95
2023/11/08 11:26:45;;;;;;;1.00;1.00;;;11.60;99.90;;;;;;5035438;28;20231;-95
2023/11/08 11:29:19;;;;;;;1.50;1.37;;;11.50;99.90;;;;;;5033157;28;20214;-94
2023/11/08 11:31:49;;;;;;;0.80;0.80;;;11.40;99.90;;;;;;5027440;28;20301;-95
2023/11/08 11:34:44;;;;;;;0.83;0.83;;;11.40;99.90;;;;;;5026233;28;20219;-96
2023/11/08 11:37:28;;;;;;;1.03;1.00;;;11.40;99.90;;;;;;5022131;28;20252;-95
2023/11/08 11:40:18;;;;;;;1.30;1.07;;;11.40;99.90;;;;;;5048517;28;20215;-96
2023/11/08 11:42:44;;;;;;;0.97;0.97;;;11.30;99.90;;;;;;5047553;28;20298;-95
2023/11/08 11:45:14;;;;;;;1.27;0.87;;;11.20;99.90;;;;;;5028956;28;20175;-96
2023/11/08 11:47:55;;;;;;;0.40;0.40;;;11.20;99.90;;;;;;5034866;28;20206;-93
2023/11/08 11:50:27;;;;;;;1.43;1.33;;;11.20;99.90;;;;;;5023703;28;20211;-95
2023/11/08 11:52:53;;;;;;;1.10;1.00;;;11.20;99.90;;;;;;5037429;28;20227;-94
2023/11/08 11:55:20;;;;;;;1.30;1.27;;;11.30;99.90;;;;;;5036642;28;20645;-94
2023/11/08 11:57:46;;;;;;;0.73;0.73;;;11.30;99.90;;;;;;5054932;28;20215;-93
2023/11/08 12:00:13;;;;;;;1.20;0.80;;;11.30;99.90;;;;;;5035432;28;20545;-93
2023/11/08 12:02:40;;;;;;;0.77;0.77;;;11.30;99.90;;;;;;5035904;28;20175;-94
2023/11/08 12:05:07;;;;;;;0.67;0.67;;;11.30;99.90;;;;;;5017619;28;20237;-96
2023/11/08 12:07:37;;;;;;;1.10;1.07;;;11.30;99.90;;;;;;5041615;28;20207;-95
2023/11/08 12:10:10;;;;;;;1.13;0.90;;;11.40;99.90;;;;;;5058974;28;20214;-95
2023/11/08 12:12:39;;;;;;;2.37;1.00;;;11.50;99.90;;;;;;5027395;28;20285;-95
2023/11/08 12:18:05;;;;;;;1.00;0.83;;;11.50;99.90;;;;;;5047865;22;20250;-90
2023/11/08 12:20:33;;;;;;;0.63;0.63;;;11.50;99.90;;;;;;5019782;28;20198;-94
2023/11/08 12:23:00;;;;;;;2.87;1.77;;;11.50;99.90;;;;;;5013691;28;20210;-96
2023/11/08 12:25:26;;;;;;;1.70;1.60;;;11.50;99.90;;;;;;5033376;28;20230;-95
2023/11/08 12:27:55;;;;;;;0.87;0.83;;;11.50;99.90;;;;;;5036256;28;20264;-94
2023/11/08 12:30:23;;;;;;;1.23;0.83;;;11.50;99.90;;;;;;5034763;28;20229;-95
2023/11/08 12:32:50;;;;;;;0.77;0.77;;;11.50;99.90;;;;;;5017787;28;20858;-94
2023/11/08 12:35:18;;;;;;;0.20;0.20;;;11.60;99.90;;;;;;5030380;28;20240;-93
2023/11/08 12:37:44;;;;;;;2.17;2.00;;;11.50;99.90;;;;;;5033165;28;20206;-94
2023/11/08 12:40:23;;;;;;;1.70;1.23;;;11.60;99.90;;;;;;5032146;28;20241;-93
2023/11/08 12:42:50;;;;;;;1.30;1.17;;;11.50;99.90;;;;;;5035411;28;20220;-96
2023/11/08 12:45:32;;;;;;;2.33;1.20;;;11.60;99.90;;;;;;5034605;28;20307;-94
2023/11/08 12:48:16;;;;;;;3.03;1.43;;;11.50;99.90;;;;;;5013732;28;20217;-91
2023/11/08 12:50:51;;;;;;;3.97;1.27;;;11.40;99.90;;;;;;5049342;28;20195;-91
2023/11/08 12:53:17;;;;;;;1.30;1.00;;;11.40;99.90;;;;;;5035668;28;20247;-93
2023/11/08 12:55:42;;;;;;;1.20;0.83;;;11.40;99.90;;;;;;5034890;28;20215;-94
2023/11/08 12:58:29;;;;;;;1.03;0.87;;;11.30;99.90;;;;;;5029706;28;20253;-92
2023/11/08 13:00:59;;;;;;;1.00;1.00;;;11.30;99.90;;;;;;5039342;28;20252;-92
2023/11/08 13:03:26;;;;;;;1.20;0.97;;;11.30;99.90;;;;;;5038674;28;20280;-96
2023/11/08 13:05:54;;;;;;;14.10;1.33;;;11.30;99.90;;;;;;5036726;28;20575;-91
2023/11/08 13:08:21;;;;;;;0.50;0.50;;;11.30;99.90;;;;;;5041265;28;20222;-90
2023/11/08 13:10:47;;;;;;;5.57;1.57;;;11.30;99.90;;;;;;5038556;28;20224;-96
2023/11/08 13:13:17;;;;;;;1.60;1.53;;;11.30;99.90;;;;;;5038613;28;21031;-95
2023/11/08 13:15:43;;;;;;;0.47;0.47;;;11.30;99.90;;;;;;5037421;28;20216;-93
2023/11/08 13:18:10;;;;;;;1.10;1.10;;;11.40;99.90;;;;;;5037302;28;20226;-94
2023/11/08 13:20:39;;;;;;;0.97;0.97;;;11.30;99.90;;;;;;5044958;28;20190;-90
2023/11/08 13:23:07;;;;;;;5.73;1.23;;;11.30;99.90;;;;;;5038532;28;20449;-91
2023/11/08 13:25:33;;;;;;;6.27;1.27;;;11.30;99.90;;;;;;5035908;28;20226;-95
2023/11/08 13:28:00;;;;;;;1.17;1.10;;;11.30;99.90;;;;;;5035767;28;20210;-91
2023/11/08 13:30:30;;;;;;;0.80;0.80;;;11.30;99.90;;;;;;5037484;28;20225;-89
2023/11/08 13:32:59;;;;;;;0.90;0.83;;;11.20;99.90;;;;;;5022455;28;20605;-90
2023/11/08 13:35:35;;;;;;;0.47;0.47;;;11.20;99.90;;;;;;5037035;28;20178;-91
2023/11/08 13:38:04;;;;;;;1.23;1.10;;;11.30;99.90;;;;;;5042307;28;20218;-91
2023/11/08 13:40:42;;;;;;;1.27;0.90;;;11.20;99.90;;;;;;5040508;28;20272;-93
2023/11/08 13:43:10;;;;;;;3.33;3.03;;;11.20;99.90;;;;;;5044458;28;20213;-90
2023/11/08 13:45:39;;;;;;;0.50;0.50;;;11.30;99.90;;;;;;5029602;28;20220;-95
2023/11/08 13:48:11;;;;;;;1.87;1.50;;;11.30;99.90;;;;;;5037273;28;20283;-92
2023/11/08 13:50:40;;;;;;;2.97;0.77;;;11.30;99.90;;;;;;5032935;28;20174;-95
2023/11/08 13:53:09;;;;;;;1.37;1.10;;;11.30;99.90;;;;;;5035116;28;20868;-92
2023/11/08 13:55:35;;;;;;;1.37;0.90;;;11.30;99.90;;;;;;5041210;28;20229;-92
2023/11/08 13:58:01;;;;;;;0.73;0.43;;;11.30;99.90;;;;;;5038500;28;20305;-91
2023/11/08 14:00:26;;;;;;;0.60;0.60;;;11.20;99.90;;;;;;5031968;28;20338;-91
2023/11/08 14:02:52;;;;;;;3.60;1.30;;;11.20;99.90;;;;;;5028725;28;20222;-90
2023/11/08 14:05:18;;;;;;;1.17;0.67;;;11.30;99.90;;;;;;5012343;28;20222;-91
2023/11/08 14:07:44;;;;;;;0.27;0.27;;;11.20;99.90;;;;;;5013585;28;20308;-91
2023/11/08 14:10:10;;;;;;;1.10;1.00;;;11.30;99.90;;;;;;5023819;28;20305;-92
2023/11/08 14:12:36;;;;;;;0.50;0.50;;;11.30;99.90;;;;;;5032173;28;20229;-90
2023/11/08 14:15:03;;;;;;;0.50;0.50;;;11.30;99.90;;;;;;5030605;28;20205;-92
2023/11/08 14:17:31;;;;;;;0.50;0.50;;;11.30;99.90;;;;;;5031912;28;20226;-93
2023/11/08 14:19:57;;;;;;;1.93;0.80;;;11.30;99.90;;;;;;5016033;28;20222;-94
2023/11/08 14:22:25;;;;;;;1.33;1.23;;;11.30;99.90;;;;;;5014191;28;20213;-90
2023/11/08 14:24:51;;;;;;;9.03;1.13;;;11.30;99.90;;;;;;5028314;28;20228;-87
2023/11/08 14:27:18;;;;;;;1.00;0.73;;;11.30;99.90;;;;;;5013909;28;20231;-93
2023/11/08 14:29:43;;;;;;;1.20;1.20;;;11.30;99.90;;;;;;5028832;28;20189;-91
2023/11/08 14:32:09;;;;;;;0.50;0.50;;;11.30;99.90;;;;;;5028867;28;20218;-89
2023/11/08 14:34:35;;;;;;;1.20;1.10;;;11.20;99.90;;;;;;5028472;28;20927;-90
2023/11/08 14:37:07;;;;;;;0.57;0.57;;;11.20;99.90;;;;;;5029974;28;20760;-90
2023/11/08 14:39:34;;;;;;;0.60;0.60;;;11.10;99.90;;;;;;5030376;28;20226;-91
2023/11/08 14:42:02;;;;;;;0.83;0.83;;;11.10;99.90;;;;;;5014297;28;20642;-92
2023/11/08 14:44:29;;;;;;;3.70;1.37;;;11.10;99.90;;;;;;5030170;28;20722;-93
2023/11/08 14:46:56;;;;;;;5.80;2.40;;;11.10;99.90;;;;;;5030927;28;20234;-93
2023/11/08 14:49:23;;;;;;;0.50;0.50;;;11.20;99.90;;;;;;5032346;28;20719;-89
2023/11/08 14:51:49;;;;;;;2.07;0.97;;;11.10;99.90;;;;;;5035838;28;20228;-92
2023/11/08 14:54:15;;;;;;;1.00;1.00;;;11.10;99.90;;;;;;5037165;28;20187;-91
2023/11/08 14:56:42;;;;;;;0.57;0.57;;;11.10;99.90;;;;;;5035489;28;20186;-93
2023/11/08 14:59:08;;;;;;;0.80;0.80;;;11.10;99.90;;;;;;5011794;28;20222;-93
2023/11/08 15:01:37;;;;;;;7.83;1.53;;;11.10;99.90;;;;;;5034732;28;20251;-92
2023/11/08 15:04:06;;;;;;;0.93;0.90;;;11.10;99.90;;;;;;5036042;28;20217;-94
2023/11/08 15:06:32;;;;;;;0.80;0.80;;;11.10;99.90;;;;;;5034724;28;20238;-90
2023/11/08 15:08:59;;;;;;;3.33;1.27;;;11.10;99.90;;;;;;5033802;28;20197;-94
2023/11/08 15:11:24;;;;;;;1.43;1.33;;;11.10;99.90;;;;;;5036535;28;20202;-92
2023/11/08 15:13:50;;;;;;;1.67;1.57;;;11.10;99.90;;;;;;5035907;28;20220;-92
2023/11/08 15:16:16;;;;;;;1.27;1.17;;;11.00;99.90;;;;;;5027280;28;20226;-94
2023/11/08 15:18:42;;;;;;;0.70;0.70;;;11.00;99.90;;;;;;5020155;28;20670;-92
2023/11/08 15:21:07;;;;;;;1.23;0.80;;;10.90;99.90;;;;;;5019514;28;20198;-92
2023/11/08 15:23:33;;;;;;;1.03;0.97;;;10.90;99.90;;;;;;5036511;28;20198;-91
2023/11/08 15:25:59;;;;;;;3.97;0.67;;;10.80;99.90;;;;;;5033020;28;20229;-91
2023/11/08 15:28:25;;;;;;;2.33;0.90;;;10.80;99.90;;;;;;5019326;28;20217;-91
2023/11/08 15:30:50;;;;;;;1.60;1.10;;;10.70;99.90;;;;;;5033214;28;20218;-91
2023/11/08 15:33:16;;;;;;;0.80;0.80;;;10.70;99.90;;;;;;5017666;28;20872;-89
2023/11/08 15:35:42;;;;;;;0.80;0.80;;;10.60;99.90;;;;;;5014731;28;20195;-91
2023/11/08 15:38:08;;;;;;;0.73;0.73;;;10.60;99.90;;;;;;5036075;28;20227;-91
2023/11/08 15:40:33;;;;;;;11.23;1.70;;;10.60;99.90;;;;;;5035397;28;20222;-90
2023/11/08 15:42:59;;;;;;;0.67;0.60;;;10.50;99.90;;;;;;5034878;28;20965;-89
2023/11/08 15:45:26;;;;;;;1.60;1.50;;;10.50;99.90;;;;;;5034284;28;20268;-89
2023/11/08 15:47:53;;;;;;;1.50;1.50;;;10.50;99.90;;;;;;5021303;28;20186;-94
2023/11/08 15:50:19;;;;;;;0.80;0.80;;;10.40;99.90;;;;;;5033296;28;20255;-92
2023/11/08 15:52:45;;;;;;;1.47;1.37;;;10.40;99.90;;;;;;5003092;28;20230;-92
2023/11/08 15:55:14;;;;;;;0.80;0.80;;;10.40;99.90;;;;;;5034725;28;20225;-92
2023/11/08 15:57:40;;;;;;;0.83;0.83;;;10.40;99.90;;;;;;5034589;28;20284;-91
2023/11/08 16:00:07;;;;;;;0.73;0.73;;;10.40;99.90;;;;;;5017000;28;20467;-92
2023/11/08 16:02:33;;;;;;;1.70;1.53;;;10.40;99.90;;;;;;5018555;28;20195;-94
2023/11/08 16:04:59;;;;;;;0.73;0.73;;;10.40;99.90;;;;;;5036667;28;20275;-90
2023/11/08 16:07:24;;;;;;;0.90;0.90;;;10.40;99.90;;;;;;5035827;28;20690;-95
2023/11/08 16:09:50;;;;;;;0.50;0.40;;;10.40;99.90;;;;;;5018314;28;20633;-90
2023/11/08 16:12:16;;;;;;;1.00;1.00;;;10.40;99.90;;;;;;5018152;28;20234;-94
2023/11/08 16:14:42;;;;;;;1.40;1.33;;;10.40;99.90;;;;;;5019221;28;20183;-91
2023/11/08 16:17:07;;;;;;;1.73;1.53;;;10.40;99.90;;;;;;5018745;28;20295;-94
2023/11/08 16:19:33;;;;;;;3.70;2.37;;;10.40;99.90;;;;;;5033564;28;20764;-91
2023/11/08 16:21:59;;;;;;;0.90;0.90;;;10.40;99.90;;;;;;5015688;28;20221;-92
2023/11/08 16:24:25;;;;;;;1.27;1.10;;;10.40;99.90;;;;;;5013809;28;20228;-89
2023/11/08 16:26:50;;;;;;;5.23;1.57;;;10.40;99.90;;;;;;5031458;28;20221;-92
2023/11/08 16:29:16;;;;;;;1.47;0.73;;;10.40;99.90;;;;;;5008424;28;20305;-89
2023/11/08 16:31:42;;;;;;;1.20;1.10;;;10.40;99.90;;;;;;5033054;28;20253;-92
2023/11/08 16:34:08;;;;;;;1.33;1.33;;;10.40;99.90;;;;;;5018203;28;20218;-92
2023/11/08 16:36:34;;;;;;;0.50;0.50;;;10.40;99.90;;;;;;5000715;28;20243;-93
2023/11/08 16:39:01;;;;;;;1.63;1.03;;;10.40;99.90;;;;;;5016556;28;20721;-92
2023/11/08 16:41:27;;;;;;;2.30;1.20;;;10.40;99.90;;;;;;5035015;28;20277;-90
2023/11/08 16:43:53;;;;;;;1.87;1.77;;;10.40;99.90;;;;;;5019295;28;20214;-91
2023/11/08 16:46:19;;;;;;;0.87;0.80;;;10.40;99.90;;;;;;5035702;28;20766;-91
2023/11/08 16:48:45;;;;;;;3.10;1.43;;;10.40;99.90;;;;;;5036491;28;20584;-92
2023/11/08 16:51:12;;;;;;;1.23;1.13;;;10.40;99.90;;;;;;5034403;28;20198;-92
2023/11/08 16:53:37;;;;;;;3.10;1.10;;;10.40;99.90;;;;;;5034628;28;20207;-92
2023/11/08 16:56:03;;;;;;;1.00;0.93;;;10.40;99.90;;;;;;5032168;28;20730;-92
2023/11/08 16:58:29;;;;;;;1.13;0.90;;;10.50;99.90;;;;;;5032614;28;20222;-91